sensor_id;sensor_type;location;lat;lon;timestamp;temperature;humidity
24158;DHT22;12316;50.904;4.200;2024-03-23T00:53:18;9.50;99.90
24158;DHT22;12316;50.904;4.200;2024-03-23T00:55:44;9.50;99.90
24158;DHT22;12316;50.904;4.200;2024-03-23T00:58:10;9.40;99.90
24158;DHT22;12316;50.904;4.200;2024-03-23T01:00:36;9.30;99.90
24158;DHT22;12316;50.904;4.200;2024-03-23T01:03:02;9.30;99.90
24158;DHT22;12316;50.904;4.200;2024-03-23T01:05:28;9.20;99.90
24158;DHT22;12316;50.904;4.200;2024-03-23T01:07:54;9.00;99.90
24158;DHT22;12316;50.904;4.200;2024-03-23T01:10:19;8.90;99.90
24158;DHT22;12316;50.904;4.200;2024-03-23T01:12:45;8.80;99.90
24158;DHT22;12316;50.904;4.200;2024-03-23T01:15:11;8.70;99.90
24158;DHT22;12316;50.904;4.200;2024-03-23T01:17:37;8.60;99.90
24158;DHT22;12316;50.904;4.200;2024-03-23T01:20:03;8.60;99.90
24158;DHT22;12316;50.904;4.200;2024-03-23T01:22:29;8.50;99.90
24158;DHT22;12316;50.904;4.200;2024-03-23T01:24:55;8.60;99.90
24158;DHT22;12316;50.904;4.200;2024-03-23T01:27:21;8.60;99.90
24158;DHT22;12316;50.904;4.200;2024-03-23T01:29:46;8.60;99.90
24158;DHT22;12316;50.904;4.200;2024-03-23T01:32:12;8.70;99.90
24158;DHT22;12316;50.904;4.200;2024-03-23T01:34:38;8.70;99.90
24158;DHT22;12316;50.904;4.200;2024-03-23T01:37:04;8.60;99.90
24158;DHT22;12316;50.904;4.200;2024-03-23T01:39:30;8.70;99.90
24158;DHT22;12316;50.904;4.200;2024-03-23T01:41:56;8.70;99.90
24158;DHT22;12316;50.904;4.200;2024-03-23T01:44:21;8.80;99.90
24158;DHT22;12316;50.904;4.200;2024-03-23T01:46:47;8.80;99.90
24158;DHT22;12316;50.904;4.200;2024-03-23T01:49:13;8.80;99.90
24158;DHT22;12316;50.904;4.200;2024-03-23T01:51:39;8.90;99.90
24158;DHT22;12316;50.904;4.200;2024-03-23T01:54:07;9.00;99.90
24158;DHT22;12316;50.904;4.200;2024-03-23T01:56:33;9.00;99.90
24158;DHT22;12316;50.904;4.200;2024-03-23T01:59:03;9.10;99.90
24158;DHT22;12316;50.904;4.200;2024-03-23T02:01:29;9.10;99.90
24158;DHT22;12316;50.904;4.200;2024-03-23T02:03:56;9.20;99.90
24158;DHT22;12316;50.904;4.200;2024-03-23T02:06:22;9.20;99.90
24158;DHT22;12316;50.904;4.200;2024-03-23T02:08:49;9.10;99.90
24158;DHT22;12316;50.904;4.200;2024-03-23T02:11:15;9.10;99.90
24158;DHT22;12316;50.904;4.200;2024-03-23T02:13:40;9.20;99.90
24158;DHT22;12316;50.904;4.200;2024-03-23T02:16:06;9.20;99.90
24158;DHT22;12316;50.904;4.200;2024-03-23T02:18:35;9.10;99.90
24158;DHT22;12316;50.904;4.200;2024-03-23T02:21:03;9.10;99.90
24158;DHT22;12316;50.904;4.200;2024-03-23T02:23:29;9.10;99.90
24158;DHT22;12316;50.904;4.200;2024-03-23T02:25:55;9.10;99.90
24158;DHT22;12316;50.904;4.200;2024-03-23T02:28:21;9.10;99.90
24158;DHT22;12316;50.904;4.200;2024-03-23T02:30:49;9.10;99.90
24158;DHT22;12316;50.904;4.200;2024-03-23T02:33:15;9.10;99.90
24158;DHT22;12316;50.904;4.200;2024-03-23T02:35:41;9.10;99.90
24158;DHT22;12316;50.904;4.200;2024-03-23T02:38:07;9.00;99.90
24158;DHT22;12316;50.904;4.200;2024-03-23T02:40:33;9.10;99.90
24158;DHT22;12316;50.904;4.200;2024-03-23T02:42:58;9.00;99.90
24158;DHT22;12316;50.904;4.200;2024-03-23T02:45:24;9.00;99.90
24158;DHT22;12316;50.904;4.200;2024-03-23T02:47:50;8.90;99.90
24158;DHT22;12316;50.904;4.200;2024-03-23T02:50:18;8.90;99.90
24158;DHT22;12316;50.904;4.200;2024-03-23T02:52:47;8.90;99.90
24158;DHT22;12316;50.904;4.200;2024-03-23T02:55:12;8.80;99.90
24158;DHT22;12316;50.904;4.200;2024-03-23T02:57:38;8.70;99.90
24158;DHT22;12316;50.904;4.200;2024-03-23T03:00:06;8.70;99.90
24158;DHT22;12316;50.904;4.200;2024-03-23T03:02:33;8.70;99.90
24158;DHT22;12316;50.904;4.200;2024-03-23T03:04:58;8.70;99.90
24158;DHT22;12316;50.904;4.200;2024-03-23T03:07:24;8.70;99.90
24158;DHT22;12316;50.904;4.200;2024-03-23T03:09:50;8.70;99.90
24158;DHT22;12316;50.904;4.200;2024-03-23T03:12:17;8.80;99.90
24158;DHT22;12316;50.904;4.200;2024-03-23T03:14:43;8.80;99.90
24158;DHT22;12316;50.904;4.200;2024-03-23T03:17:09;8.90;99.90
24158;DHT22;12316;50.904;4.200;2024-03-23T03:19:35;8.90;99.90
24158;DHT22;12316;50.904;4.200;2024-03-23T03:22:00;9.00;99.90
24158;DHT22;12316;50.904;4.200;2024-03-23T03:24:26;9.00;99.90
24158;DHT22;12316;50.904;4.200;2024-03-23T03:26:52;8.90;99.90
24158;DHT22;12316;50.904;4.200;2024-03-23T03:29:17;9.00;99.90
24158;DHT22;12316;50.904;4.200;2024-03-23T03:31:43;9.00;99.90
24158;DHT22;12316;50.904;4.200;2024-03-23T03:34:10;9.00;99.90
24158;DHT22;12316;50.904;4.200;2024-03-23T03:36:36;9.00;99.90
24158;DHT22;12316;50.904;4.200;2024-03-23T03:39:01;8.90;99.90
24158;DHT22;12316;50.904;4.200;2024-03-23T03:41:31;8.80;99.90
24158;DHT22;12316;50.904;4.200;2024-03-23T03:43:57;8.80;99.90
24158;DHT22;12316;50.904;4.200;2024-03-23T03:46:27;8.80;99.90
24158;DHT22;12316;50.904;4.200;2024-03-23T03:48:53;8.60;99.90
24158;DHT22;12316;50.904;4.200;2024-03-23T03:51:19;8.50;99.90
24158;DHT22;12316;50.904;4.200;2024-03-23T03:53:45;8.40;99.90
24158;DHT22;12316;50.904;4.200;2024-03-23T03:56:11;8.40;99.90
24158;DHT22;12316;50.904;4.200;2024-03-23T03:58:37;8.50;99.90
24158;DHT22;12316;50.904;4.200;2024-03-23T04:01:03;8.60;99.90
24158;DHT22;12316;50.904;4.200;2024-03-23T04:03:29;8.60;99.90
24158;DHT22;12316;50.904;4.200;2024-03-23T04:05:55;8.60;99.90
24158;DHT22;12316;50.904;4.200;2024-03-23T04:08:21;8.60;99.90
24158;DHT22;12316;50.904;4.200;2024-03-23T04:10:47;8.60;99.90
24158;DHT22;12316;50.904;4.200;2024-03-23T04:13:13;8.60;99.90
24158;DHT22;12316;50.904;4.200;2024-03-23T04:15:39;8.50;99.90
24158;DHT22;12316;50.904;4.200;2024-03-23T04:18:05;8.60;99.90
24158;DHT22;12316;50.904;4.200;2024-03-23T04:20:31;8.60;99.90
24158;DHT22;12316;50.904;4.200;2024-03-23T04:23:00;8.60;99.90
24158;DHT22;12316;50.904;4.200;2024-03-23T04:25:27;8.60;99.90
24158;DHT22;12316;50.904;4.200;2024-03-23T04:27:52;8.60;99.90
24158;DHT22;12316;50.904;4.200;2024-03-23T04:30:19;8.70;99.90
24158;DHT22;12316;50.904;4.200;2024-03-23T04:32:46;8.70;99.90
24158;DHT22;12316;50.904;4.200;2024-03-23T04:35:13;8.70;99.90
24158;DHT22;12316;50.904;4.200;2024-03-23T04:37:39;8.60;99.90
24158;DHT22;12316;50.904;4.200;2024-03-23T04:40:08;8.50;99.90
24158;DHT22;12316;50.904;4.200;2024-03-23T04:42:34;8.50;99.90
24158;DHT22;12316;50.904;4.200;2024-03-23T04:45:00;8.40;99.90
24158;DHT22;12316;50.904;4.200;2024-03-23T04:47:26;8.20;99.90
24158;DHT22;12316;50.904;4.200;2024-03-23T04:49:53;8.10;99.90
24158;DHT22;12316;50.904;4.200;2024-03-23T04:52:19;8.00;99.90
24158;DHT22;12316;50.904;4.200;2024-03-23T04:54:44;8.00;99.90
24158;DHT22;12316;50.904;4.200;2024-03-23T04:57:13;8.00;99.90
24158;DHT22;12316;50.904;4.200;2024-03-23T04:59:39;7.90;99.90
24158;DHT22;12316;50.904;4.200;2024-03-23T05:02:04;7.70;99.90
24158;DHT22;12316;50.904;4.200;2024-03-23T05:04:30;7.70;99.90
24158;DHT22;12316;50.904;4.200;2024-03-23T05:06:57;7.80;99.90
24158;DHT22;12316;50.904;4.200;2024-03-23T05:09:23;8.00;99.90
24158;DHT22;12316;50.904;4.200;2024-03-23T05:11:49;8.00;99.90
24158;DHT22;12316;50.904;4.200;2024-03-23T05:14:15;8.10;99.90
24158;DHT22;12316;50.904;4.200;2024-03-23T05:16:41;8.10;99.90
24158;DHT22;12316;50.904;4.200;2024-03-23T05:19:07;8.10;99.90
24158;DHT22;12316;50.904;4.200;2024-03-23T05:21:32;8.00;99.90
24158;DHT22;12316;50.904;4.200;2024-03-23T05:23:58;8.00;99.90
24158;DHT22;12316;50.904;4.200;2024-03-23T05:26:24;8.10;99.90
24158;DHT22;12316;50.904;4.200;2024-03-23T05:28:50;8.10;99.90
24158;DHT22;12316;50.904;4.200;2024-03-23T05:31:26;8.00;99.90
24158;DHT22;12316;50.904;4.200;2024-03-23T05:33:52;8.00;99.90
24158;DHT22;12316;50.904;4.200;2024-03-23T05:36:18;7.90;99.90
24158;DHT22;12316;50.904;4.200;2024-03-23T05:38:44;8.00;99.90
24158;DHT22;12316;50.904;4.200;2024-03-23T05:41:10;8.10;99.90
24158;DHT22;12316;50.904;4.200;2024-03-23T05:43:35;8.20;99.90
24158;DHT22;12316;50.904;4.200;2024-03-23T05:46:01;8.20;99.90
24158;DHT22;12316;50.904;4.200;2024-03-23T05:48:28;8.20;99.90
24158;DHT22;12316;50.904;4.200;2024-03-23T05:50:54;8.00;99.90
24158;DHT22;12316;50.904;4.200;2024-03-23T05:53:20;8.10;99.90
24158;DHT22;12316;50.904;4.200;2024-03-23T05:55:46;8.10;99.90
24158;DHT22;12316;50.904;4.200;2024-03-23T05:58:16;7.90;99.90
24158;DHT22;12316;50.904;4.200;2024-03-23T06:00:42;7.90;99.90
24158;DHT22;12316;50.904;4.200;2024-03-23T06:03:08;7.90;99.90
24158;DHT22;12316;50.904;4.200;2024-03-23T06:05:34;7.90;99.90
24158;DHT22;12316;50.904;4.200;2024-03-23T06:08:00;7.90;99.90
24158;DHT22;12316;50.904;4.200;2024-03-23T06:10:25;7.90;99.90
24158;DHT22;12316;50.904;4.200;2024-03-23T06:12:51;7.80;99.90
24158;DHT22;12316;50.904;4.200;2024-03-23T06:15:20;7.90;99.90
24158;DHT22;12316;50.904;4.200;2024-03-23T06:17:48;7.90;99.90
24158;DHT22;12316;50.904;4.200;2024-03-23T06:20:14;8.00;99.90
24158;DHT22;12316;50.904;4.200;2024-03-23T06:22:39;8.10;99.90
24158;DHT22;12316;50.904;4.200;2024-03-23T06:25:05;8.20;99.90
24158;DHT22;12316;50.904;4.200;2024-03-23T06:27:32;8.40;99.90
24158;DHT22;12316;50.904;4.200;2024-03-23T06:30:01;8.40;99.90
24158;DHT22;12316;50.904;4.200;2024-03-23T06:32:28;8.30;99.90
24158;DHT22;12316;50.904;4.200;2024-03-23T06:34:56;8.40;99.90
24158;DHT22;12316;50.904;4.200;2024-03-23T06:37:22;8.20;99.90
24158;DHT22;12316;50.904;4.200;2024-03-23T06:39:48;8.20;99.90
24158;DHT22;12316;50.904;4.200;2024-03-23T06:42:15;8.40;99.90
24158;DHT22;12316;50.904;4.200;2024-03-23T06:44:40;8.50;99.90
24158;DHT22;12316;50.904;4.200;2024-03-23T06:47:06;8.70;99.90
24158;DHT22;12316;50.904;4.200;2024-03-23T06:49:32;8.80;99.90
24158;DHT22;12316;50.904;4.200;2024-03-23T06:51:58;8.60;99.90
24158;DHT22;12316;50.904;4.200;2024-03-23T06:54:24;8.30;99.90
24158;DHT22;12316;50.904;4.200;2024-03-23T06:56:50;8.00;99.90
24158;DHT22;12316;50.904;4.200;2024-03-23T06:59:16;7.70;99.90
24158;DHT22;12316;50.904;4.200;2024-03-23T07:01:41;7.60;99.90
24158;DHT22;12316;50.904;4.200;2024-03-23T07:04:07;7.60;99.90
24158;DHT22;12316;50.904;4.200;2024-03-23T07:06:33;7.50;99.90
24158;DHT22;12316;50.904;4.200;2024-03-23T07:08:59;7.40;99.90
24158;DHT22;12316;50.904;4.200;2024-03-23T07:11:25;7.40;99.90
24158;DHT22;12316;50.904;4.200;2024-03-23T07:13:51;7.30;99.90
24158;DHT22;12316;50.904;4.200;2024-03-23T07:16:18;7.20;99.90
24158;DHT22;12316;50.904;4.200;2024-03-23T07:18:44;7.30;99.90
24158;DHT22;12316;50.904;4.200;2024-03-23T07:21:09;7.50;99.90
24158;DHT22;12316;50.904;4.200;2024-03-23T07:23:35;7.50;99.90
24158;DHT22;12316;50.904;4.200;2024-03-23T07:26:02;7.50;99.90
24158;DHT22;12316;50.904;4.200;2024-03-23T07:28:30;7.60;99.90
24158;DHT22;12316;50.904;4.200;2024-03-23T07:31:07;7.70;99.90
24158;DHT22;12316;50.904;4.200;2024-03-23T07:33:41;7.90;99.90
24158;DHT22;12316;50.904;4.200;2024-03-23T07:36:07;8.10;99.90
24158;DHT22;12316;50.904;4.200;2024-03-23T07:38:32;8.10;99.90
24158;DHT22;12316;50.904;4.200;2024-03-23T07:41:05;8.20;99.90
24158;DHT22;12316;50.904;4.200;2024-03-23T07:43:31;8.30;99.90
24158;DHT22;12316;50.904;4.200;2024-03-23T07:45:57;8.20;99.90
24158;DHT22;12316;50.904;4.200;2024-03-23T07:48:24;8.20;99.90
24158;DHT22;12316;50.904;4.200;2024-03-23T07:51:02;8.30;99.90
24158;DHT22;12316;50.904;4.200;2024-03-23T07:53:29;8.40;99.90
24158;DHT22;12316;50.904;4.200;2024-03-23T07:56:07;8.40;99.90
24158;DHT22;12316;50.904;4.200;2024-03-23T07:58:33;8.30;99.90
24158;DHT22;12316;50.904;4.200;2024-03-23T08:01:09;8.40;99.90
24158;DHT22;12316;50.904;4.200;2024-03-23T08:03:36;8.40;99.90
24158;DHT22;12316;50.904;4.200;2024-03-23T08:08:37;8.50;99.90
24158;DHT22;12316;50.904;4.200;2024-03-23T08:11:05;8.70;99.90
24158;DHT22;12316;50.904;4.200;2024-03-23T08:13:32;8.50;99.90
24158;DHT22;12316;50.904;4.200;2024-03-23T08:15:58;8.50;99.90
24158;DHT22;12316;50.904;4.200;2024-03-23T08:18:24;8.60;99.90
24158;DHT22;12316;50.904;4.200;2024-03-23T08:21:04;8.80;99.90
24158;DHT22;12316;50.904;4.200;2024-03-23T08:23:31;8.80;99.90
24158;DHT22;12316;50.904;4.200;2024-03-23T08:26:04;8.70;99.90
24158;DHT22;12316;50.904;4.200;2024-03-23T08:28:30;8.70;99.90
24158;DHT22;12316;50.904;4.200;2024-03-23T08:30:56;8.70;99.90
24158;DHT22;12316;50.904;4.200;2024-03-23T08:33:23;8.80;99.90
24158;DHT22;12316;50.904;4.200;2024-03-23T08:35:54;8.80;99.90
24158;DHT22;12316;50.904;4.200;2024-03-23T08:38:21;8.90;99.90
24158;DHT22;12316;50.904;4.200;2024-03-23T08:40:47;8.90;99.90
24158;DHT22;12316;50.904;4.200;2024-03-23T08:43:13;8.90;99.90
24158;DHT22;12316;50.904;4.200;2024-03-23T08:45:41;8.90;99.90
24158;DHT22;12316;50.904;4.200;2024-03-23T08:48:07;8.90;99.90
24158;DHT22;12316;50.904;4.200;2024-03-23T08:50:33;9.20;99.90
24158;DHT22;12316;50.904;4.200;2024-03-23T08:52:59;9.40;99.90
24158;DHT22;12316;50.904;4.200;2024-03-23T08:55:25;9.30;99.90
24158;DHT22;12316;50.904;4.200;2024-03-23T08:57:50;9.20;99.90
24158;DHT22;12316;50.904;4.200;2024-03-23T09:00:16;9.20;99.90
24158;DHT22;12316;50.904;4.200;2024-03-23T09:02:42;9.20;99.90
24158;DHT22;12316;50.904;4.200;2024-03-23T09:05:09;9.40;99.90
24158;DHT22;12316;50.904;4.200;2024-03-23T09:07:35;9.40;99.90
24158;DHT22;12316;50.904;4.200;2024-03-23T09:10:00;9.30;99.90
24158;DHT22;12316;50.904;4.200;2024-03-23T09:12:26;9.40;99.90
24158;DHT22;12316;50.904;4.200;2024-03-23T09:14:52;9.50;99.90
24158;DHT22;12316;50.904;4.200;2024-03-23T09:17:19;9.50;99.90
24158;DHT22;12316;50.904;4.200;2024-03-23T09:19:44;9.60;99.90
24158;DHT22;12316;50.904;4.200;2024-03-23T09:22:10;9.50;99.90
24158;DHT22;12316;50.904;4.200;2024-03-23T09:24:36;9.50;99.90
24158;DHT22;12316;50.904;4.200;2024-03-23T09:27:02;9.70;99.90
24158;DHT22;12316;50.904;4.200;2024-03-23T09:29:28;9.60;99.90
24158;DHT22;12316;50.904;4.200;2024-03-23T09:31:54;9.50;99.90
24158;DHT22;12316;50.904;4.200;2024-03-23T09:34:20;9.60;99.90
24158;DHT22;12316;50.904;4.200;2024-03-23T09:36:46;9.50;99.90
24158;DHT22;12316;50.904;4.200;2024-03-23T09:39:12;9.50;99.90
24158;DHT22;12316;50.904;4.200;2024-03-23T09:41:39;9.50;99.90
24158;DHT22;12316;50.904;4.200;2024-03-23T09:44:05;9.60;99.90
24158;DHT22;12316;50.904;4.200;2024-03-23T09:46:31;9.60;99.90
24158;DHT22;12316;50.904;4.200;2024-03-23T09:49:01;9.60;99.90
24158;DHT22;12316;50.904;4.200;2024-03-23T09:51:26;9.80;99.90
24158;DHT22;12316;50.904;4.200;2024-03-23T09:53:52;9.70;99.90
24158;DHT22;12316;50.904;4.200;2024-03-23T09:56:18;9.70;99.90
24158;DHT22;12316;50.904;4.200;2024-03-23T09:58:44;9.80;99.90
24158;DHT22;12316;50.904;4.200;2024-03-23T10:01:10;10.00;99.90
24158;DHT22;12316;50.904;4.200;2024-03-23T10:03:45;10.00;99.90
24158;DHT22;12316;50.904;4.200;2024-03-23T10:06:11;9.70;99.90
24158;DHT22;12316;50.904;4.200;2024-03-23T10:08:37;9.70;99.90
24158;DHT22;12316;50.904;4.200;2024-03-23T10:11:16;9.60;99.90
24158;DHT22;12316;50.904;4.200;2024-03-23T10:13:44;9.60;99.90
24158;DHT22;12316;50.904;4.200;2024-03-23T10:16:23;9.50;99.90
24158;DHT22;12316;50.904;4.200;2024-03-23T10:18:49;9.50;99.90
24158;DHT22;12316;50.904;4.200;2024-03-23T10:21:15;9.50;99.90
24158;DHT22;12316;50.904;4.200;2024-03-23T10:23:42;9.60;99.90
24158;DHT22;12316;50.904;4.200;2024-03-23T10:26:25;9.90;99.90
24158;DHT22;12316;50.904;4.200;2024-03-23T10:29:02;9.90;99.90
24158;DHT22;12316;50.904;4.200;2024-03-23T10:31:33;9.90;99.90
24158;DHT22;12316;50.904;4.200;2024-03-23T10:33:59;10.00;99.90
24158;DHT22;12316;50.904;4.200;2024-03-23T10:36:26;10.30;99.90
24158;DHT22;12316;50.904;4.200;2024-03-23T10:38:55;10.60;99.90
24158;DHT22;12316;50.904;4.200;2024-03-23T10:41:21;10.70;99.90
24158;DHT22;12316;50.904;4.200;2024-03-23T10:43:48;10.60;99.90
24158;DHT22;12316;50.904;4.200;2024-03-23T10:46:14;10.20;99.90
24158;DHT22;12316;50.904;4.200;2024-03-23T10:48:40;10.20;99.90
24158;DHT22;12316;50.904;4.200;2024-03-23T10:51:08;10.40;99.90
24158;DHT22;12316;50.904;4.200;2024-03-23T10:53:35;10.30;99.90
24158;DHT22;12316;50.904;4.200;2024-03-23T10:56:02;10.20;99.90
24158;DHT22;12316;50.904;4.200;2024-03-23T11:00:57;10.40;99.90
24158;DHT22;12316;50.904;4.200;2024-03-23T11:03:31;10.30;99.90
24158;DHT22;12316;50.904;4.200;2024-03-23T11:05:57;10.50;99.90
24158;DHT22;12316;50.904;4.200;2024-03-23T11:08:39;10.90;99.90
24158;DHT22;12316;50.904;4.200;2024-03-23T11:11:24;11.40;99.90
24158;DHT22;12316;50.904;4.200;2024-03-23T11:13:54;11.50;99.90
24158;DHT22;12316;50.904;4.200;2024-03-23T11:16:27;11.60;99.90
24158;DHT22;12316;50.904;4.200;2024-03-23T11:22:01;11.40;99.90
24158;DHT22;12316;50.904;4.200;2024-03-23T11:24:28;11.20;99.90
24158;DHT22;12316;50.904;4.200;2024-03-23T11:26:54;11.20;99.90
24158;DHT22;12316;50.904;4.200;2024-03-23T11:29:20;11.20;99.90
24158;DHT22;12316;50.904;4.200;2024-03-23T11:31:50;11.50;99.90
24158;DHT22;12316;50.904;4.200;2024-03-23T11:34:17;11.60;99.90
24158;DHT22;12316;50.904;4.200;2024-03-23T11:36:43;11.80;99.90
24158;DHT22;12316;50.904;4.200;2024-03-23T11:39:19;12.10;99.90
24158;DHT22;12316;50.904;4.200;2024-03-23T11:41:52;12.10;99.90
24158;DHT22;12316;50.904;4.200;2024-03-23T11:46:45;12.00;99.90
24158;DHT22;12316;50.904;4.200;2024-03-23T11:49:24;12.10;99.90
24158;DHT22;12316;50.904;4.200;2024-03-23T11:51:52;12.10;99.90
24158;DHT22;12316;50.904;4.200;2024-03-23T11:54:23;11.80;99.90
24158;DHT22;12316;50.904;4.200;2024-03-23T11:59:39;11.40;99.90
24158;DHT22;12316;50.904;4.200;2024-03-23T12:02:08;11.00;99.90
24158;DHT22;12316;50.904;4.200;2024-03-23T12:04:36;11.10;99.90
24158;DHT22;12316;50.904;4.200;2024-03-23T12:07:18;10.90;99.90
24158;DHT22;12316;50.904;4.200;2024-03-23T12:09:45;10.40;99.90
24158;DHT22;12316;50.904;4.200;2024-03-23T12:12:18;10.10;99.90
24158;DHT22;12316;50.904;4.200;2024-03-23T12:14:45;9.60;99.90
24158;DHT22;12316;50.904;4.200;2024-03-23T12:17:26;9.60;99.90
24158;DHT22;12316;50.904;4.200;2024-03-23T12:19:51;9.50;99.90
24158;DHT22;12316;50.904;4.200;2024-03-23T12:22:21;9.50;99.90
24158;DHT22;12316;50.904;4.200;2024-03-23T12:24:47;9.50;99.90
24158;DHT22;12316;50.904;4.200;2024-03-23T12:27:13;9.60;99.90
24158;DHT22;12316;50.904;4.200;2024-03-23T12:29:40;9.90;99.90
24158;DHT22;12316;50.904;4.200;2024-03-23T12:32:08;10.00;99.90
24158;DHT22;12316;50.904;4.200;2024-03-23T12:34:33;10.10;99.90
24158;DHT22;12316;50.904;4.200;2024-03-23T12:36:59;10.20;99.90
24158;DHT22;12316;50.904;4.200;2024-03-23T12:39:25;10.40;99.90
24158;DHT22;12316;50.904;4.200;2024-03-23T12:41:51;10.60;99.90
24158;DHT22;12316;50.904;4.200;2024-03-23T12:44:18;10.70;99.90
24158;DHT22;12316;50.904;4.200;2024-03-23T12:46:44;10.70;99.90
24158;DHT22;12316;50.904;4.200;2024-03-23T12:49:10;10.70;99.90
24158;DHT22;12316;50.904;4.200;2024-03-23T12:51:36;10.80;99.90
24158;DHT22;12316;50.904;4.200;2024-03-23T12:54:02;10.80;99.90
24158;DHT22;12316;50.904;4.200;2024-03-23T12:56:28;10.70;99.90
24158;DHT22;12316;50.904;4.200;2024-03-23T12:58:56;10.80;99.90
24158;DHT22;12316;50.904;4.200;2024-03-23T13:01:23;10.70;99.90
24158;DHT22;12316;50.904;4.200;2024-03-23T13:03:52;10.70;99.90
24158;DHT22;12316;50.904;4.200;2024-03-23T13:06:18;10.60;99.90
24158;DHT22;12316;50.904;4.200;2024-03-23T13:08:45;10.50;99.90
24158;DHT22;12316;50.904;4.200;2024-03-23T13:11:11;10.40;99.90
24158;DHT22;12316;50.904;4.200;2024-03-23T13:13:37;10.10;99.90
24158;DHT22;12316;50.904;4.200;2024-03-23T13:16:04;9.80;99.90
24158;DHT22;12316;50.904;4.200;2024-03-23T13:18:31;9.60;99.90
24158;DHT22;12316;50.904;4.200;2024-03-23T13:20:58;9.70;99.90
24158;DHT22;12316;50.904;4.200;2024-03-23T13:23:24;9.80;99.90
24158;DHT22;12316;50.904;4.200;2024-03-23T13:25:55;9.90;99.90
24158;DHT22;12316;50.904;4.200;2024-03-23T13:28:22;10.30;99.90
24158;DHT22;12316;50.904;4.200;2024-03-23T13:30:52;10.60;99.90
24158;DHT22;12316;50.904;4.200;2024-03-23T13:33:18;10.80;99.90
24158;DHT22;12316;50.904;4.200;2024-03-23T13:35:53;11.20;99.90
24158;DHT22;12316;50.904;4.200;2024-03-23T13:38:20;11.60;99.90
24158;DHT22;12316;50.904;4.200;2024-03-23T13:41:04;11.80;99.90
24158;DHT22;12316;50.904;4.200;2024-03-23T13:43:32;11.70;99.90
24158;DHT22;12316;50.904;4.200;2024-03-23T13:45:58;11.50;99.90
24158;DHT22;12316;50.904;4.200;2024-03-23T13:48:27;11.30;99.90
24158;DHT22;12316;50.904;4.200;2024-03-23T13:51:04;11.10;99.90
24158;DHT22;12316;50.904;4.200;2024-03-23T13:53:31;10.70;99.90
24158;DHT22;12316;50.904;4.200;2024-03-23T13:55:58;9.50;99.90
24158;DHT22;12316;50.904;4.200;2024-03-23T13:58:23;8.60;99.90
24158;DHT22;12316;50.904;4.200;2024-03-23T14:00:51;8.20;99.90
24158;DHT22;12316;50.904;4.200;2024-03-23T14:03:17;8.00;99.90
24158;DHT22;12316;50.904;4.200;2024-03-23T14:05:44;8.10;99.90
24158;DHT22;12316;50.904;4.200;2024-03-23T14:08:10;8.20;99.90
24158;DHT22;12316;50.904;4.200;2024-03-23T14:10:39;8.50;99.90
24158;DHT22;12316;50.904;4.200;2024-03-23T14:13:07;8.90;99.90
24158;DHT22;12316;50.904;4.200;2024-03-23T14:15:33;9.00;99.90
24158;DHT22;12316;50.904;4.200;2024-03-23T14:17:59;9.20;99.90
24158;DHT22;12316;50.904;4.200;2024-03-23T14:20:25;9.30;99.90
24158;DHT22;12316;50.904;4.200;2024-03-23T14:22:54;9.40;99.90
24158;DHT22;12316;50.904;4.200;2024-03-23T14:25:20;9.60;99.90
24158;DHT22;12316;50.904;4.200;2024-03-23T14:27:47;9.80;99.90
24158;DHT22;12316;50.904;4.200;2024-03-23T14:30:13;9.80;99.90
24158;DHT22;12316;50.904;4.200;2024-03-23T14:32:39;9.90;99.90
24158;DHT22;12316;50.904;4.200;2024-03-23T14:35:06;9.90;99.90
24158;DHT22;12316;50.904;4.200;2024-03-23T14:37:39;9.90;99.90
24158;DHT22;12316;50.904;4.200;2024-03-23T14:40:08;9.90;99.90
24158;DHT22;12316;50.904;4.200;2024-03-23T14:42:34;9.90;99.90
24158;DHT22;12316;50.904;4.200;2024-03-23T14:45:00;9.70;99.90
24158;DHT22;12316;50.904;4.200;2024-03-23T14:47:26;9.50;99.90
24158;DHT22;12316;50.904;4.200;2024-03-23T14:49:51;9.40;99.90
24158;DHT22;12316;50.904;4.200;2024-03-23T14:52:17;9.50;99.90
24158;DHT22;12316;50.904;4.200;2024-03-23T14:54:47;9.60;99.90
24158;DHT22;12316;50.904;4.200;2024-03-23T14:57:13;9.70;99.90
24158;DHT22;12316;50.904;4.200;2024-03-23T14:59:39;9.80;99.90
24158;DHT22;12316;50.904;4.200;2024-03-23T15:02:06;10.00;99.90
24158;DHT22;12316;50.904;4.200;2024-03-23T15:04:32;10.10;99.90
24158;DHT22;12316;50.904;4.200;2024-03-23T15:06:58;10.30;99.90
24158;DHT22;12316;50.904;4.200;2024-03-23T15:09:24;10.30;99.90
24158;DHT22;12316;50.904;4.200;2024-03-23T15:11:50;10.30;99.90
24158;DHT22;12316;50.904;4.200;2024-03-23T15:14:16;10.30;99.90
24158;DHT22;12316;50.904;4.200;2024-03-23T15:16:41;10.20;99.90
24158;DHT22;12316;50.904;4.200;2024-03-23T15:19:12;10.20;99.90
24158;DHT22;12316;50.904;4.200;2024-03-23T15:21:38;10.30;99.90
24158;DHT22;12316;50.904;4.200;2024-03-23T15:24:04;10.40;99.90
24158;DHT22;12316;50.904;4.200;2024-03-23T15:26:31;10.50;99.90
24158;DHT22;12316;50.904;4.200;2024-03-23T15:28:56;10.70;99.90
24158;DHT22;12316;50.904;4.200;2024-03-23T15:31:22;10.90;99.90
24158;DHT22;12316;50.904;4.200;2024-03-23T15:33:48;10.90;99.90
24158;DHT22;12316;50.904;4.200;2024-03-23T15:36:14;10.80;99.90
24158;DHT22;12316;50.904;4.200;2024-03-23T15:38:40;10.70;99.90
24158;DHT22;12316;50.904;4.200;2024-03-23T15:41:06;10.70;99.90
24158;DHT22;12316;50.904;4.200;2024-03-23T15:43:32;10.80;99.90
24158;DHT22;12316;50.904;4.200;2024-03-23T15:45:59;10.70;99.90
24158;DHT22;12316;50.904;4.200;2024-03-23T15:48:26;10.80;99.90
24158;DHT22;12316;50.904;4.200;2024-03-23T15:50:57;10.80;99.90
24158;DHT22;12316;50.904;4.200;2024-03-23T15:53:24;10.90;99.90
24158;DHT22;12316;50.904;4.200;2024-03-23T15:55:56;11.00;99.90
24158;DHT22;12316;50.904;4.200;2024-03-23T15:58:23;11.00;99.90
24158;DHT22;12316;50.904;4.200;2024-03-23T16:03:21;11.20;99.90
24158;DHT22;12316;50.904;4.200;2024-03-23T16:05:52;11.10;99.90
24158;DHT22;12316;50.904;4.200;2024-03-23T16:08:17;10.90;99.90
24158;DHT22;12316;50.904;4.200;2024-03-23T16:10:43;10.70;99.90
24158;DHT22;12316;50.904;4.200;2024-03-23T16:13:09;10.50;99.90
24158;DHT22;12316;50.904;4.200;2024-03-23T16:15:35;10.50;99.90
24158;DHT22;12316;50.904;4.200;2024-03-23T16:18:00;10.50;99.90
24158;DHT22;12316;50.904;4.200;2024-03-23T16:20:26;10.60;99.90
24158;DHT22;12316;50.904;4.200;2024-03-23T16:22:52;10.50;99.90
24158;DHT22;12316;50.904;4.200;2024-03-23T16:25:19;10.60;99.90
24158;DHT22;12316;50.904;4.200;2024-03-23T16:27:45;10.70;99.90
24158;DHT22;12316;50.904;4.200;2024-03-23T16:30:11;10.70;99.90
24158;DHT22;12316;50.904;4.200;2024-03-23T16:32:38;10.70;99.90
24158;DHT22;12316;50.904;4.200;2024-03-23T16:35:06;10.70;99.90
24158;DHT22;12316;50.904;4.200;2024-03-23T16:37:35;10.60;99.90
24158;DHT22;12316;50.904;4.200;2024-03-23T16:40:01;10.60;99.90
24158;DHT22;12316;50.904;4.200;2024-03-23T16:42:27;10.60;99.90
24158;DHT22;12316;50.904;4.200;2024-03-23T16:44:54;10.70;99.90
24158;DHT22;12316;50.904;4.200;2024-03-23T16:47:19;10.80;99.90
24158;DHT22;12316;50.904;4.200;2024-03-23T16:49:45;10.80;99.90